Portland, Oregon
Traffic Map
Current Weather Conditions
Portland, Oregon
Overcast Light Rain
Overcast
12°
Feels Like: 12°
Wind Chill: 12° Ceiling: 500
Heat Index: 12° Visibility: 8mi
Dew Point: 12° Wind: 7mph
Humidity: 97% Direction: 290° (WNW)
Pressure: 29.68in Gusts: 0mph
Raw Report DataKPDX 311214Z 29006KT 8SM -RA BKN005 BKN017 OVC040 12/12 A2968 RMK AO2 P0002 T01220117
Traffic Incident Summary
Active as of:
Severity:
Category:
InformationThere was an issue retrieving the traffic information for this location. Please try a different location or try again shortly.
Advertisements
Track Severe Weather on mobile